Terminal Aerodrome Forecast
Issued by NWS Spokane, WA

Home | Current Version | Previous Version | Text Only | Print | Product List | Glossary On
Versions: 1 2 3 4 5 6 7 8 9 10 11 12 13
000
FTUS46 KOTX 291729
TAFGEG
TAF
KGEG 291729Z 2918/3018 04006KT P6SM FEW090 FEW150 SCT250
     FM292100 25006KT P6SM FEW150 BKN250
     FM300000 22004KT P6SM SCT080 BKN150
     FM300800 18006KT P6SM -SHRA SCT040 OVC080
     FM301400 16006KT P6SM VCSH SCT090 BKN120=

USA.gov is the U.S. government's official web portal to all federal, state and local government web resources and services.